Bretagne — FNBR — position and weather

sailwx.info

Track history (hours):
 
Tides and Currents Weather Stations Pressure Air Temp Water Temp Dewpoint Dewpoint Depression Visibility Wind Speed Wind Dir Waves Ship Positions

Bretagne

Operator: Brittany Ferries

Last reported at 2016-Dec-09 05:04 UTC. Time now 2016-Dec-09 09:45 UTC.
Position N 49°02' W 002°23'.

Length 151 m; beam 27 m.

Type: Ship. MMSI: 227286000.

Date/timePositionNaut miles runAvg speedWind from/ knotsBaromVisibWave heightAir tempDewpointWater temp
2016-Dec-09 05:04N 49°02' W 002°23'5113.1
2016-Dec-09 01:13N 49°50' W 001°56'4014.0
2016-Dec-08 22:23N 50°23' W 001°22'1316.4
2016-Dec-08 21:33N 50°34' W 001°10'1312.5
2016-Dec-08 20:34N 50°46' W 001°05'3 2.5
2016-Dec-08 19:32N 50°49' W 001°06'0 0.0
2016-Dec-08 18:32N 50°49' W 001°06'2 2.4
2016-Dec-08 17:33N 50°46' W 001°05'1313.2
2016-Dec-08 16:33N 50°34' W 001°11'1615.4
2016-Dec-08 15:31N 50°19' W 001°21'7117.8
2016-Dec-08 11:31N 49°11' W 001°56'1717.1
2016-Dec-08 10:33N 48°55' W 001°58'1715.5
2016-Dec-08 09:28N 48°38' W 002°02'0 0.0
2016-Dec-08 07:12N 48°38' W 002°02'5 8.1
2016-Dec-08 06:34N 48°43' W 002°07'1616.1
2016-Dec-08 05:34N 48°56' W 002°21'1615.3
2016-Dec-08 04:31N 49°12' W 002°22'2215.0
2016-Dec-08 03:03N 49°32' W 002°11'816.1
2016-Dec-08 02:33N 49°40' W 002°07'1312.8
2016-Dec-08 01:33N 49°50' W 001°55'1313.0
2016-Dec-08 00:32N 50°02' W 001°44'2814.2
2016-Dec-07 22:33N 50°24' W 001°18'1515.5
2016-Dec-07 21:33N 50°36' W 001°03'1010.4
2016-Dec-07 20:33N 50°47' W 001°06'2 2.0
2016-Dec-07 19:31N 50°49' W 001°06'0 0.0
2016-Dec-07 18:31N 50°49' W 001°06'0 0.0
2016-Dec-07 17:31N 50°49' W 001°06'0 0.0
2016-Dec-07 16:31N 50°49' W 001°06'0 0.0
2016-Dec-07 15:31N 50°49' W 001°06'0 0.0
2016-Dec-07 14:31N 50°49' W 001°06'0 0.0
2016-Dec-07 13:31N 50°49' W 001°06'0 0.0
2016-Dec-07 12:31N 50°49' W 001°06'0 0.0
2016-Dec-07 11:31N 50°49' W 001°06'0 0.0
2016-Dec-07 10:31N 50°49' W 001°06'0 0.0
2016-Dec-07 09:31N 50°49' W 001°06'0 0.0
2016-Dec-07 08:31N 50°49' W 001°06'0 0.2
2016-Dec-07 07:33N 50°49' W 001°06'10 9.6
2016-Dec-07 06:34N 50°39' W 001°05'1312.7
2016-Dec-07 05:33N 50°29' W 001°17'1110.7
2016-Dec-07 04:33N 50°19' W 001°24'1212.2
2016-Dec-07 03:34N 50°08' W 001°33'1515.1
2016-Dec-07 02:34N 49°56' W 001°46'1313.4
2016-Dec-07 01:33N 49°46' W 001°60'1413.9
2016-Dec-07 00:33N 49°33' W 002°10'3712.3
2016-Dec-06 21:33N 48°57' W 002°22'2 0.1
2016-Dec-06 05:30N 48°58' W 002°23'1513.8
2016-Dec-06 04:27N 49°13' W 002°22'1714.5
2016-Dec-06 03:16N 49°29' W 002°13'1815.6
2016-Dec-06 02:06N 49°46' W 002°01'713.1
2016-Dec-06 01:33N 49°51' W 001°53'1312.8
2016-Dec-06 00:33N 50°01' W 001°42'1313.0
2016-Dec-05 23:33N 50°12' W 001°31'1313.1
2016-Dec-05 22:33N 50°23' W 001°18'1313.5
2016-Dec-05 21:33N 50°34' W 001°06'1010.5
2016-Dec-05 20:34N 50°44' W 001°04'5 4.8
2016-Dec-05 19:31N 50°49' W 001°06'0 0.0
2016-Dec-05 18:32N 50°49' W 001°06'4 4.0
2016-Dec-05 17:34N 50°45' W 001°05'1413.9
2016-Dec-05 16:33N 50°32' W 001°13'1514.9
2016-Dec-05 15:33N 50°20' W 001°26'1616.4
2016-Dec-05 14:34N 50°05' W 001°39'1717.5
2016-Dec-05 13:33N 49°51' W 001°54'1717.4
2016-Dec-05 12:33N 49°34' W 002°00'13 1.3
2016-Dec-05 02:05N 49°47' W 001°60'814.8
2016-Dec-05 01:33N 49°53' W 001°53'1414.2
2016-Dec-05 00:33N 50°05' W 001°40'2014.0
2016-Dec-04 23:07N 50°21' W 001°21'813.3
2016-Dec-04 22:32N 50°27' W 001°14'1312.9
2016-Dec-04 21:34N 50°37' W 001°02'1110.9
2016-Dec-04 20:33N 50°48' W 001°07'1 1.1
2016-Dec-04 19:31N 50°49' W 001°06'0 0.0
2016-Dec-04 18:31N 50°49' W 001°06'0 0.0
2016-Dec-04 17:31N 50°49' W 001°06'0 0.0
2016-Dec-04 16:31N 50°49' W 001°06'0 0.0
2016-Dec-04 15:31N 50°49' W 001°06'0 0.0
2016-Dec-04 14:31N 50°49' W 001°06'0 0.0
2016-Dec-04 13:31N 50°49' W 001°06'0 0.0
2016-Dec-04 12:31N 50°49' W 001°06'0 0.0
2016-Dec-04 11:31N 50°49' W 001°06'0 0.0
2016-Dec-04 10:31N 50°49' W 001°06'0 0.0
2016-Dec-04 09:31N 50°49' W 001°06'0 0.0
2016-Dec-04 08:31N 50°49' W 001°06'0 0.0
2016-Dec-04 07:33N 50°49' W 001°06'1010.0
2016-Dec-04 06:34N 50°40' W 000°59'2117.0
2016-Dec-04 05:19N 50°21' W 001°16'1215.9
2016-Dec-04 04:33N 50°12' W 001°28'1312.9
2016-Dec-04 03:34N 50°02' W 001°41'1212.3
2016-Dec-04 02:33N 49°53' W 001°53'2110.0
2016-Dec-04 00:26N 49°34' W 002°08'18 0.8
2016-Dec-03 02:33N 49°51' W 001°57'1312.6
2016-Dec-03 01:34N 50°01' W 001°47'1211.6
2016-Dec-03 00:33N 50°10' W 001°35'1310.5
2016-Dec-02 23:22N 50°21' W 001°25'8 9.7
2016-Dec-02 22:33N 50°27' W 001°17'9 9.2
2016-Dec-02 21:33N 50°35' W 001°09'1111.3
2016-Dec-02 20:33N 50°46' W 001°05'3 2.9
2016-Dec-02 19:33N 50°49' W 001°06'0 0.0
2016-Dec-02 18:33N 50°49' W 001°06'6 6.3
2016-Dec-02 17:33N 50°43' W 001°01'1515.3
2016-Dec-02 16:33N 50°29' W 001°11'1717.4
2016-Dec-02 15:33N 50°16' W 001°28'1717.3
2016-Dec-02 14:33N 50°01' W 001°43'1717.3
2016-Dec-02 13:33N 49°47' W 001°58'1616.1
2016-Dec-02 12:33N 49°32' W 002°07'3919.3
2016-Dec-02 10:33N 48°54' W 002°21'20 5.8
2016-Dec-02 07:04N 48°38' W 002°02'1114.6
2016-Dec-02 06:17N 48°48' W 002°11'3512.3
2016-Dec-02 03:27N 49°23' W 002°17'2814.8
2016-Dec-02 01:33N 49°48' W 001°59'1413.6
2016-Dec-02 00:33N 49°60' W 001°48'2014.6
2016-Dec-01 23:10N 50°16' W 001°30'914.3
2016-Dec-01 22:34N 50°23' W 001°22'1313.4
2016-Dec-01 21:33N 50°34' W 001°10'1111.1
2016-Dec-01 20:33N 50°45' W 001°05'4 3.6
2016-Dec-01 19:31N 50°49' W 001°06'0 0.0
2016-Dec-01 18:31N 50°49' W 001°06'910.0
2016-Dec-01 17:33N 50°40' W 000°59'2018.2
2016-Dec-01 16:29N 50°25' W 001°17'1617.7
2016-Dec-01 15:34N 50°12' W 001°33'1716.6
2016-Dec-01 14:33N 49°59' W 001°50'7117.0
2016-Dec-01 10:23N 48°51' W 002°16'20 3.4
2016-Dec-01 04:31N 49°10' W 002°22'3912.9
2016-Dec-01 01:28N 49°47' W 001°60'1314.7
2016-Dec-01 00:33N 49°57' W 001°46'1615.7
2016-Nov-30 23:33N 50°11' W 001°35'1514.8
2016-Nov-30 22:33N 50°23' W 001°21'1413.8
2016-Nov-30 21:33N 50°34' W 001°09'1211.6
2016-Nov-30 20:33N 50°45' W 001°05'3 3.1
2016-Nov-30 19:30N 50°49' W 001°06'0 0.0
2016-Nov-30 18:31N 50°49' W 001°06'0 0.0
2016-Nov-30 17:31N 50°49' W 001°06'0 0.0
2016-Nov-30 16:31N 50°49' W 001°06'0 0.0
2016-Nov-30 15:31N 50°49' W 001°06'0 0.0
2016-Nov-30 14:31N 50°49' W 001°06'0 0.0
2016-Nov-30 13:31N 50°49' W 001°06'0 0.0
2016-Nov-30 12:31N 50°49' W 001°06'0 0.0
2016-Nov-30 11:31N 50°49' W 001°06'0 0.0
2016-Nov-30 10:31N 50°49' W 001°06'0 0.0
2016-Nov-30 09:31N 50°49' W 001°06'0 0.0
2016-Nov-30 08:31N 50°49' W 001°06'0 0.0
2016-Nov-30 07:34N 50°49' W 001°06'1010.0
2016-Nov-30 06:34N 50°40' W 000°59'1816.7
2016-Nov-30 05:31N 50°25' W 001°15'1415.1
2016-Nov-30 04:33N 50°13' W 001°27'1414.4
2016-Nov-30 03:34N 50°02' W 001°41'1413.7
2016-Nov-30 02:33N 49°52' W 001°55'9 8.7
2016-Nov-30 01:33N 49°44' W 002°02'7 7.0
2016-Nov-30 00:32N 49°38' W 002°06'1210.3
2016-Nov-29 23:25N 49°27' W 002°12'1111.5
2016-Nov-29 22:28N 49°17' W 002°20'2512.7
2016-Nov-29 20:32N 48°52' W 002°19'1413.2
2016-Nov-29 19:28N 48°41' W 002°06'  
Track history (hours):
 
Tides and Currents Weather Stations Pressure Air Temp Water Temp Dewpoint Dewpoint Depression Visibility Wind Speed Wind Dir Waves Ship Positions

Bretagne

Operator: Brittany Ferries

Last reported at 2016-Dec-09 05:04 UTC. Time now 2016-Dec-09 09:45 UTC.
Position N 49°02' W 002°23'.

Length 151 m; beam 27 m.

Type: Ship. MMSI: 227286000.

Date/timePositionNaut miles runAvg speedWind from/ knotsBaromVisibWave heightAir tempDewpointWater temp
2016-Dec-09 05:04N 49°02' W 002°23'5113.1
2016-Dec-09 01:13N 49°50' W 001°56'4014.0
2016-Dec-08 22:23N 50°23' W 001°22'1316.4
2016-Dec-08 21:33N 50°34' W 001°10'1312.5
2016-Dec-08 20:34N 50°46' W 001°05'3 2.5
2016-Dec-08 19:32N 50°49' W 001°06'0 0.0
2016-Dec-08 18:32N 50°49' W 001°06'2 2.4
2016-Dec-08 17:33N 50°46' W 001°05'1313.2
2016-Dec-08 16:33N 50°34' W 001°11'1615.4
2016-Dec-08 15:31N 50°19' W 001°21'7117.8
2016-Dec-08 11:31N 49°11' W 001°56'1717.1
2016-Dec-08 10:33N 48°55' W 001°58'1715.5
2016-Dec-08 09:28N 48°38' W 002°02'0 0.0
2016-Dec-08 07:12N 48°38' W 002°02'5 8.1
2016-Dec-08 06:34N 48°43' W 002°07'1616.1
2016-Dec-08 05:34N 48°56' W 002°21'1615.3
2016-Dec-08 04:31N 49°12' W 002°22'2215.0
2016-Dec-08 03:03N 49°32' W 002°11'816.1
2016-Dec-08 02:33N 49°40' W 002°07'1312.8
2016-Dec-08 01:33N 49°50' W 001°55'1313.0
2016-Dec-08 00:32N 50°02' W 001°44'2814.2
2016-Dec-07 22:33N 50°24' W 001°18'1515.5
2016-Dec-07 21:33N 50°36' W 001°03'1010.4
2016-Dec-07 20:33N 50°47' W 001°06'2 2.0
2016-Dec-07 19:31N 50°49' W 001°06'0 0.0
2016-Dec-07 18:31N 50°49' W 001°06'0 0.0
2016-Dec-07 17:31N 50°49' W 001°06'0 0.0
2016-Dec-07 16:31N 50°49' W 001°06'0 0.0
2016-Dec-07 15:31N 50°49' W 001°06'0 0.0
2016-Dec-07 14:31N 50°49' W 001°06'0 0.0
2016-Dec-07 13:31N 50°49' W 001°06'0 0.0
2016-Dec-07 12:31N 50°49' W 001°06'0 0.0
2016-Dec-07 11:31N 50°49' W 001°06'0 0.0
2016-Dec-07 10:31N 50°49' W 001°06'0 0.0
2016-Dec-07 09:31N 50°49' W 001°06'0 0.0
2016-Dec-07 08:31N 50°49' W 001°06'0 0.2
2016-Dec-07 07:33N 50°49' W 001°06'10 9.6
2016-Dec-07 06:34N 50°39' W 001°05'1312.7
2016-Dec-07 05:33N 50°29' W 001°17'1110.7
2016-Dec-07 04:33N 50°19' W 001°24'1212.2
2016-Dec-07 03:34N 50°08' W 001°33'1515.1
2016-Dec-07 02:34N 49°56' W 001°46'1313.4
2016-Dec-07 01:33N 49°46' W 001°60'1413.9
2016-Dec-07 00:33N 49°33' W 002°10'3712.3
2016-Dec-06 21:33N 48°57' W 002°22'2 0.1
2016-Dec-06 05:30N 48°58' W 002°23'1513.8
2016-Dec-06 04:27N 49°13' W 002°22'1714.5
2016-Dec-06 03:16N 49°29' W 002°13'1815.6
2016-Dec-06 02:06N 49°46' W 002°01'713.1
2016-Dec-06 01:33N 49°51' W 001°53'1312.8
2016-Dec-06 00:33N 50°01' W 001°42'1313.0
2016-Dec-05 23:33N 50°12' W 001°31'1313.1
2016-Dec-05 22:33N 50°23' W 001°18'1313.5
2016-Dec-05 21:33N 50°34' W 001°06'1010.5
2016-Dec-05 20:34N 50°44' W 001°04'5 4.8
2016-Dec-05 19:31N 50°49' W 001°06'0 0.0
2016-Dec-05 18:32N 50°49' W 001°06'4 4.0
2016-Dec-05 17:34N 50°45' W 001°05'1413.9
2016-Dec-05 16:33N 50°32' W 001°13'1514.9
2016-Dec-05 15:33N 50°20' W 001°26'1616.4
2016-Dec-05 14:34N 50°05' W 001°39'1717.5
2016-Dec-05 13:33N 49°51' W 001°54'1717.4
2016-Dec-05 12:33N 49°34' W 002°00'13 1.3
2016-Dec-05 02:05N 49°47' W 001°60'814.8
2016-Dec-05 01:33N 49°53' W 001°53'1414.2
2016-Dec-05 00:33N 50°05' W 001°40'2014.0
2016-Dec-04 23:07N 50°21' W 001°21'813.3
2016-Dec-04 22:32N 50°27' W 001°14'1312.9
2016-Dec-04 21:34N 50°37' W 001°02'1110.9
2016-Dec-04 20:33N 50°48' W 001°07'1 1.1
2016-Dec-04 19:31N 50°49' W 001°06'0 0.0
2016-Dec-04 18:31N 50°49' W 001°06'0 0.0
2016-Dec-04 17:31N 50°49' W 001°06'0 0.0
2016-Dec-04 16:31N 50°49' W 001°06'0 0.0
2016-Dec-04 15:31N 50°49' W 001°06'0 0.0
2016-Dec-04 14:31N 50°49' W 001°06'0 0.0
2016-Dec-04 13:31N 50°49' W 001°06'0 0.0
2016-Dec-04 12:31N 50°49' W 001°06'0 0.0
2016-Dec-04 11:31N 50°49' W 001°06'0 0.0
2016-Dec-04 10:31N 50°49' W 001°06'0 0.0
2016-Dec-04 09:31N 50°49' W 001°06'0 0.0
2016-Dec-04 08:31N 50°49' W 001°06'0 0.0
2016-Dec-04 07:33N 50°49' W 001°06'1010.0
2016-Dec-04 06:34N 50°40' W 000°59'2117.0
2016-Dec-04 05:19N 50°21' W 001°16'1215.9
2016-Dec-04 04:33N 50°12' W 001°28'1312.9
2016-Dec-04 03:34N 50°02' W 001°41'1212.3
2016-Dec-04 02:33N 49°53' W 001°53'2110.0
2016-Dec-04 00:26N 49°34' W 002°08'18 0.8
2016-Dec-03 02:33N 49°51' W 001°57'1312.6
2016-Dec-03 01:34N 50°01' W 001°47'1211.6
2016-Dec-03 00:33N 50°10' W 001°35'1310.5
2016-Dec-02 23:22N 50°21' W 001°25'8 9.7
2016-Dec-02 22:33N 50°27' W 001°17'9 9.2
2016-Dec-02 21:33N 50°35' W 001°09'1111.3
2016-Dec-02 20:33N 50°46' W 001°05'3 2.9
2016-Dec-02 19:33N 50°49' W 001°06'0 0.0
2016-Dec-02 18:33N 50°49' W 001°06'6 6.3
2016-Dec-02 17:33N 50°43' W 001°01'1515.3
2016-Dec-02 16:33N 50°29' W 001°11'1717.4
2016-Dec-02 15:33N 50°16' W 001°28'1717.3
2016-Dec-02 14:33N 50°01' W 001°43'1717.3
2016-Dec-02 13:33N 49°47' W 001°58'1616.1
2016-Dec-02 12:33N 49°32' W 002°07'3919.3
2016-Dec-02 10:33N 48°54' W 002°21'20 5.8
2016-Dec-02 07:04N 48°38' W 002°02'1114.6
2016-Dec-02 06:17N 48°48' W 002°11'3512.3
2016-Dec-02 03:27N 49°23' W 002°17'2814.8
2016-Dec-02 01:33N 49°48' W 001°59'1413.6
2016-Dec-02 00:33N 49°60' W 001°48'2014.6
2016-Dec-01 23:10N 50°16' W 001°30'914.3
2016-Dec-01 22:34N 50°23' W 001°22'1313.4
2016-Dec-01 21:33N 50°34' W 001°10'1111.1
2016-Dec-01 20:33N 50°45' W 001°05'4 3.6
2016-Dec-01 19:31N 50°49' W 001°06'0 0.0
2016-Dec-01 18:31N 50°49' W 001°06'910.0
2016-Dec-01 17:33N 50°40' W 000°59'2018.2
2016-Dec-01 16:29N 50°25' W 001°17'1617.7
2016-Dec-01 15:34N 50°12' W 001°33'1716.6
2016-Dec-01 14:33N 49°59' W 001°50'7117.0
2016-Dec-01 10:23N 48°51' W 002°16'20 3.4
2016-Dec-01 04:31N 49°10' W 002°22'3912.9
2016-Dec-01 01:28N 49°47' W 001°60'1314.7
2016-Dec-01 00:33N 49°57' W 001°46'1615.7
2016-Nov-30 23:33N 50°11' W 001°35'1514.8
2016-Nov-30 22:33N 50°23' W 001°21'1413.8
2016-Nov-30 21:33N 50°34' W 001°09'1211.6
2016-Nov-30 20:33N 50°45' W 001°05'3 3.1
2016-Nov-30 19:30N 50°49' W 001°06'0 0.0
2016-Nov-30 18:31N 50°49' W 001°06'0 0.0
2016-Nov-30 17:31N 50°49' W 001°06'0 0.0
2016-Nov-30 16:31N 50°49' W 001°06'0 0.0
2016-Nov-30 15:31N 50°49' W 001°06'0 0.0
2016-Nov-30 14:31N 50°49' W 001°06'0 0.0
2016-Nov-30 13:31N 50°49' W 001°06'0 0.0
2016-Nov-30 12:31N 50°49' W 001°06'0 0.0
2016-Nov-30 11:31N 50°49' W 001°06'0 0.0
2016-Nov-30 10:31N 50°49' W 001°06'0 0.0
2016-Nov-30 09:31N 50°49' W 001°06'0 0.0
2016-Nov-30 08:31N 50°49' W 001°06'0 0.0
2016-Nov-30 07:34N 50°49' W 001°06'1010.0
2016-Nov-30 06:34N 50°40' W 000°59'1816.7
2016-Nov-30 05:31N 50°25' W 001°15'1415.1
2016-Nov-30 04:33N 50°13' W 001°27'1414.4
2016-Nov-30 03:34N 50°02' W 001°41'1413.7
2016-Nov-30 02:33N 49°52' W 001°55'9 8.7
2016-Nov-30 01:33N 49°44' W 002°02'7 7.0
2016-Nov-30 00:32N 49°38' W 002°06'1210.3
2016-Nov-29 23:25N 49°27' W 002°12'1111.5
2016-Nov-29 22:28N 49°17' W 002°20'2512.7
2016-Nov-29 20:32N 48°52' W 002°19'1413.2
2016-Nov-29 19:28N 48°41' W 002°06'  

Dump ship's entire track history